Aviation Digital Data Service (ADDS)

Output produced by METARs form (1931 UTC 22 May 2019)
found at http://aviationweather.gov/metar/data/
 
TAF EHGG 221645Z 2218/2324 28009KT CAVOK 
     BECMG 2218/2220 VRB03KT 
     PROB30 2223/2304 5000 MIFG 
     BECMG 2304/2307 21010KT 
     BECMG 2318/2320 VRB03KT